SHMÚ vydal meteorologické výstrahy na Nízke teplotySnehové jazyky a záveje Zobraziť výstrahy

Smogová situácia PM10 - Upozornenie - Jelšava a okolie » Zobraziť

TAF

Letisková predpoveď TAF

Informácie o správe TAF

18.01.2019 - 14:00 UTC

TAF LZSL 181400Z 1815/1900 32010KT 9999 BKN050=
TAF LZPP 181400Z 1815/1900 31010KT 9999 SCT030 BKN080=
TAF LZZI 181400Z 1815/1900 26008KT 9999 BKN040
    PROB40 TEMPO 1815/1817 2500 -RASN SCT014 BKN030=

18.01.2019 - 11:00 UTC

TAF LZIB 181100Z 1812/1912 31012KT 9999 FEW035 BKN060
    BECMG 1814/1816 CAVOK
    BECMG 1822/1900 VRB02KT
    PROB40 TEMPO 1903/1908 2400 BR SCT012 BKN025
    BECMG 1908/1910 11008KT=
TAF LZKZ 181100Z 1812/1912 02004KT 1200 BCFG BKN010
    BECMG 1812/1814 01010KT 9999 SCT012 BKN040
    BECMG 1815/1817 CAVOK
    PROB40 TEMPO 1903/1908 VRB02KT 2400 BR SCT012 BKN025=
TAF LZTT 181100Z 1812/1912 25020KT 9999 FEW025 BKN080
    PROB40 TEMPO 1812/1815 4000 -RASN BR BKN013 OVC050
    BECMG 1814/1816 25010KT
    TEMPO 1908/1912 2300 -SN BR BKN007 OVC030
    PROB40 TEMPO 1904/1908 VRB02KT 0500 FZFG BKN002=

18.01.2019 - 11:00 UTC

TAF LZSL 181100Z 1812/1821 31010KT 9999 BKN050
    TEMPO 1812/1815 2000 -RASN BR SCT014 BKN035=
TAF LZPP 181100Z 1812/1821 31010KT 9999 SCT030 BKN080=
TAF LZZI 181100Z 1812/1821 26010KT 9999 BKN040
    PROB40 TEMPO 1812/1816 2500 -RASN SCT014 BKN030=

18.01.2019 - 05:00 UTC

TAF AMD LZKZ 181009Z 1810/1906 VRB02KT 0400 FG BKN006
    BECMG 1811/1813 2500 BR SCT007 BKN014
    BECMG 1813/1815 01010KT 9999 BKN040
    BECMG 1815/1817 CAVOK
    PROB40 TEMPO 1903/1906 2500 BR SCT012 BKN025=

18.01.2019 - 08:00 UTC

TAF LZSL 180800Z 1809/1818 VRB02KT 4500 BR BKN020 OVC040
    PROB40 TEMPO 1809/1811 1400 -FZRA BR BKN005 OVC020
    TEMPO 1811/1815 2000 -RASN BR SCT014 BKN035
    BECMG 1812/1814 32008KT 9999 BKN040=
TAF LZPP 180800Z 1809/1818 26005KT 9999 SCT035 BKN080
    TEMPO 1809/1810 -RA BKN035
    BECMG 1810/1812 33010KT FEW040 SCT090=
TAF LZZI 180800Z 1809/1818 VRB02KT 6000 FEW035 SCT060
    PROB40 TEMPO 1809/1812 26006KT 2500 -RASN BR BKN014 OVC030=

18.01.2019 - 05:00 UTC

TAF AMD LZKZ 180706Z 1807/1906 VRB02KT 0400 FG BKN004
    TEMPO 1807/1815 -RA
    BECMG 1808/1810 2500 BR SCT007 BKN014
    BECMG 1813/1815 01010KT 9999 BKN040
    BECMG 1815/1817 CAVOK
    PROB40 TEMPO 1903/1906 2500 BR SCT012 BKN025=

18.01.2019 - 05:00 UTC

TAF LZSL 180500Z 1806/1815 VRB02KT 4500 BR SCT007 OVC040
    TEMPO 1806/1815 2500 -RASN BR SCT014 BKN035
    PROB40 TEMPO 1806/1810 1400 -FZRA BR
    BECMG 1812/1814 32008KT 7000=
TAF LZPP 180500Z 1806/1815 26005KT 9999 SCT035 OVC080
    TEMPO 1806/1810 -RA BKN035
    BECMG 1810/1812 33010KT FEW040 SCT090=
TAF LZZI 180500Z 1806/1815 VRB02KT 6000 FEW035 SCT060
    PROB40 TEMPO 1806/1807 0150 FZFG SCT002 BKN030
    TEMPO 1807/1812 3500 -RASN BR BKN018 OVC030
    PROB40 TEMPO 1807/1809 23007KT 1200 -FZRA BR=

18.01.2019 - 05:00 UTC

TAF LZIB 180500Z 1806/1906 28008KT 9999 FEW035 BKN085
    TEMPO 1806/1811 -RA SCT025 BKN060
    BECMG 1814/1816 CAVOK
    BECMG 1822/1900 VRB02KT
    PROB40 TEMPO 1903/1906 2800 BR SCT012 BKN025=
TAF LZKZ 180500Z 1806/1906 03006KT 4800 BR SCT006 OVC035
    TEMPO 1806/1807 VRB02KT 1400 BCFG BR BKN002
    TEMPO 1807/1815 -RA SCT022 BKN040
    PROB40 TEMPO 1807/1810 -FZRA
    BECMG 1815/1817 CAVOK
    PROB40 TEMPO 1903/1906 2500 BR SCT012 BKN025=
TAF LZTT 180500Z 1806/1906 25015KT 9999 FEW025 BKN080
    TEMPO 1806/1815 4500 -RASN BR BKN013 OVC070
    BECMG 1814/1816 25003KT
    TEMPO 1818/1906 2300 -SN BR BKN007 OVC030
    PROB40 TEMPO 1904/1906 0700 FZFG BKN002=

18.01.2019 - 02:00 UTC

TAF AMD LZZI 180428Z 1804/1812 VRB02KT 6000 FEW025 SCT050
    BECMG 1804/1806 0150 FZFG SCT002 BKN025
    TEMPO 1806/1812 3500 -RASN BR SCT025 BKN045
    PROB40 TEMPO 1806/1808 23007KT 1200 -FZRA BR=

18.01.2019 - 02:00 UTC

TAF LZSL 180200Z 1803/1812 VRB02KT 4500 BR SCT007 OVC035
    TEMPO 1803/1812 2500 -RASN BR SCT014 BKN035
    PROB40 TEMPO 1803/1805 1400 -FZRA BR
    BECMG 1810/1812 27007KT 7000=
TAF LZZI 180200Z 1803/1812 VRB02KT 6000 FEW035 SCT050
    TEMPO 1803/1812 3500 -RASN BR SCT025 BKN045
    PROB40 TEMPO 1803/1808 23007KT 1200 -FZRA BR=

skok na menu ↑


skok na začiatok stránky ↑